NY/NJ Local METAR Reports

 

KNYC - NYC/Central Park, NY, USA
Distance from Hoboken: NE 4mi, 7km
Updated: 01/17/2020 4:51pm
Clear
Clear
 Wind from WNW
Wind: WNW 10 mph , 17 km/h, Gust: 20 mph , 31 km/h
Temperature: 27°F , -3°C
Wind Chill: 18°F , -8°C
Dew Point: -6°F , -21°C
Humidity: 24%
Barometer: 30.66 inHg , 1038.3 hPa
Clouds: Clear
Visibility: 10 miles , 16 km
2020/01/17 21:51 KNYC 172151Z AUTO 30009G17KT 260V330 10SM CLR M03/M21 A3066 RMK AO2 SLP375 T10281206
KEWR - Newark, NJ, USA
Distance from Hoboken: WSW 8mi, 13km
Updated: 01/17/2020 4:51pm
Partly cloudy
Partly cloudy
 Wind from WNW
Wind: WNW 16 mph , 26 km/h, Gust: 28 mph , 44 km/h
Temperature: 28°F , -2°C
Wind Chill: 16°F , -9°C
Dew Point: -6°F , -21°C
Humidity: 22%
Barometer: 30.66 inHg , 1038.3 hPa
Clouds: Partly cloudy
Visibility: 10 miles , 16 km
Cloud details: Partly cloudy 25000 ft
2020/01/17 21:51 KEWR 172151Z 30014G24KT 10SM SCT250 M02/M21 A3066 RMK AO2 SLP380 T10221206
 
KLGA - NYC/La Guardia, NY, USA
Distance from Hoboken: ENE 8mi, 13km
Updated: 01/17/2020 4:51pm
Mostly cloudy
Mostly cloudy
 Wind from NW
Wind: NW 17 mph , 28 km/h, Gust: 22 mph , 35 km/h
Temperature: 28°F , -2°C
Wind Chill: 16°F , -9°C
Dew Point: -0°F , -18°C
Humidity: 29%
Barometer: 30.65 inHg , 1037.9 hPa
Clouds: Mostly cloudy
Visibility: 10 miles , 16 km
Cloud details: Mostly cloudy 25000 ft
2020/01/17 21:51 KLGA 172151Z 32015G19KT 10SM BKN250 M02/M18 A3065 RMK AO2 SLP378 T10221183
KTEB - Teterboro, NJ, USA
Distance from Hoboken: N 9mi, 14km
Updated: 01/17/2020 4:51pm
Clear
Clear
 Wind from NNW
Wind: NNW 10 mph , 17 km/h
Temperature: 28°F , -2°C
Wind Chill: 19°F , -7°C
Dew Point: -2°F , -19°C
Humidity: 26%
Barometer: 30.65 inHg , 1037.9 hPa
Clouds: Clear
Visibility: 10 miles , 16 km
2020/01/17 21:51 KTEB 172151Z 33009KT 10SM CLR M02/M19 A3065 RMK AO2 SLP377 T10221194
 
KJFK - NYC/Jfk Arpt, NY, USA
Distance from Hoboken: ESE 16mi, 25km
Updated: 01/17/2020 4:51pm
Mostly cloudy
Mostly cloudy
 Wind from NNW
Wind: NNW 16 mph , 26 km/h
Temperature: 28°F , -2°C
Wind Chill: 16°F , -9°C
Dew Point: -2°F , -19°C
Humidity: 26%
Barometer: 30.65 inHg , 1037.9 hPa
Clouds: Mostly cloudy
Visibility: 10 miles , 16 km
Cloud details: Mostly cloudy 25000 ft
2020/01/17 21:51 KJFK 172151Z 34014KT 10SM BKN250 M02/M19 A3065 RMK AO2 SLP379 T10221194 CHINO W $
KCDW - Caldwell, NJ, USA
Distance from Hoboken: NW 16mi, 26km
Updated: 01/17/2020 4:53pm
Clear
Clear
 Wind from NW
Wind: NW 10 mph , 17 km/h
Temperature: 28°F , -2°C
Wind Chill: 19°F , -7°C
Dew Point: -4°F , -20°C
Humidity: 24%
Barometer: 30.66 inHg , 1038.3 hPa
Clouds: Clear
Visibility: 10 miles , 16 km
2020/01/17 21:53 KCDW 172153Z 32009KT 10SM CLR M02/M20 A3066 RMK AO2 SLP390 T10221200
 
KMMU - Morristown Muni, NJ, USA
Distance from Hoboken: W 20mi, 33km
Updated: 01/17/2020 5:45pm
Partly cloudy
Partly cloudy
 Wind from NNW
Wind: NNW 7 mph , 11 km/h
Temperature: 25°F , -4°C
Wind Chill: 17°F , -8°C
Dew Point: 5°F , -15°C
Humidity: 42%
Barometer: 30.68 inHg , 1038.9 hPa
Clouds: Partly cloudy
Visibility: 10 miles , 16 km
Cloud details: Partly cloudy 25000 ft
2020/01/17 22:45 KMMU 172245Z 34006KT 10SM SCT250 M04/M15 A3068
KHPN - White Plains, NY, USA
Distance from Hoboken: NE 28mi, 46km
Updated: 01/17/2020 4:56pm
Clear
Clear
 Wind from NNW
Wind: NNW 12 mph , 19 km/h
Temperature: 25°F , -4°C
Wind Chill: 14°F , -10°C
Dew Point: -8°F , -22°C
Humidity: 23%
Barometer: 30.60 inHg , 1036.2 hPa
Clouds: Clear
Visibility: 10 miles , 16 km
2020/01/17 21:56 KHPN 172156Z 33010KT 10SM CLR M04/M22 A3060 RMK AO2 SLP375 T10441217
 
KFRG - Farmingdale, NY, USA
Distance from Hoboken: E 32mi, 52km
Updated: 01/17/2020 4:53pm
Clear
Clear
 Wind from N
Wind: N 12 mph , 19 km/h, Gust: 20 mph , 31 km/h
Temperature: 28°F , -2°C
Wind Chill: 18°F , -8°C
Dew Point: -6°F , -21°C
Humidity: 22%
Barometer: 30.63 inHg , 1037.3 hPa
Clouds: Clear
Visibility: 10 miles , 16 km
2020/01/17 21:53 KFRG 172153Z 36010G17KT 10SM CLR M02/M21 A3063 RMK AO2 SLP373 T10221206 $
KSMQ - Somerville, NJ, USA
Distance from Hoboken: WSW 34mi, 55km
Updated: 01/17/2020 4:53pm
Clear
Clear
 Wind from NW
Wind: NW 8 mph , 13 km/h
Temperature: 28°F , -2°C
Wind Chill: 20°F , -7°C
Dew Point: -0°F , -18°C
Humidity: 29%
Barometer: 30.65 inHg , 1037.9 hPa
Clouds: Clear
Visibility: 10 miles , 16 km
2020/01/17 21:53 KSMQ 172153Z AUTO 31007KT 10SM CLR M02/M18 A3065 RMK AO2 SLP382 T10221178
 
KBLM - Belmar/Farmdale, NJ, USA
Distance from Hoboken: S 40mi, 64km
Updated: 01/17/2020 4:56pm
Clear
Clear
 Wind from NW
Wind: NW 10 mph , 17 km/h
Temperature: 28°F , -2°C
Wind Chill: 19°F , -7°C
Dew Point: 1°F , -17°C
Humidity: 31%
Barometer: 30.65 inHg , 1037.9 hPa
Clouds: Clear
Visibility: 10 miles , 16 km
2020/01/17 21:56 KBLM 172156Z AUTO 31009KT 10SM CLR M02/M17 A3065 RMK AO2 SLP382 T10221167 FZRANO
K12N - Andover, NJ, USA
Distance from Hoboken: WNW 41mi, 67km
Updated: 01/17/2020 4:54pm

 Wind from NNW
Wind: NNW 7 mph , 11 km/h
Temperature: 25°F , -4°C
Wind Chill: 17°F , -8°C
Dew Point: -0°F , -18°C
Humidity: 33%
Barometer: 30.64 inHg , 1037.6 hPa
2020/01/17 21:54 K12N 172154Z AUTO 34006KT M04/M18 A3064 RMK AO1 SLP393 T10441183
 
KFWN - Sussex, NJ, USA
Distance from Hoboken: NW 45mi, 72km
Updated: 01/17/2020 4:53pm
Clear
Clear
 Wind from NW
Wind: NW 7 mph , 11 km/h
Temperature: 25°F , -4°C
Wind Chill: 17°F , -8°C
Dew Point: -2°F , -19°C
Humidity: 30%
Barometer: 30.64 inHg , 1037.6 hPa
Clouds: Clear
Visibility: 10 miles , 16 km
2020/01/17 21:53 KFWN 172153Z AUTO 32006KT 10SM CLR M04/M19 A3064 RMK AO2 SLP381 T10441194
KISP - Islip, NY, USA
Distance from Hoboken: E 49mi, 79km
Updated: 01/17/2020 4:56pm
Few Clouds
Few Clouds
 Wind from NNW
Wind: NNW 16 mph , 26 km/h, Gust: 29 mph , 46 km/h
Temperature: 25°F , -4°C
Wind Chill: 12°F , -11°C
Dew Point: -2°F , -19°C
Humidity: 30%
Barometer: 30.61 inHg , 1036.6 hPa
Clouds: Few Clouds
Visibility: 10 miles , 16 km
Cloud details: Few Clouds 25000 ft
2020/01/17 21:56 KISP 172156Z 33014G25KT 10SM FEW250 M04/M19 A3061 RMK AO2 PK WND 33027/2120 SLP368 T10391194